Equality, Alabama
Current Conditions -  °F | °C
As of 4:55 AM on Sunday 23 Nov 2014 (Local Time) from KALX Reporting Station
Overcast Overcast  
Wind Chill: 59°   Ceiling: 800
Heat Index: 59°   Visibility: 10mi
Dew Point: 55°   Wind: 10mph
Humidity: 85%   Direction: 110°ESE
Pressure: 29.93"   Gusts: 16mph
Location:  32.76°N, 86.1°W
Report Text: KALX 231055Z AUTO 11009G14KT 10SM OVC008 15/13 A2993 RMK AO2 P0006 T01510126
Loading
Personal Weather Stations






























Interactive Weather Map New forecast layout! Learn more

10-Day Weather Forecast

Advertisements
Track Severe Weather on mobile